LIPI 200055Z 36003KT CAVOK 15/13 Q1026 RMK SKC VIS MIN 9999 WIND THR06 04003KT WIND THR24 01002KT BLU LIPI 192355Z 04004KT CAVOK 15/13 Q1026 RMK SKC VIS MIN 9999 WIND THR06 07004KT WIND THR24 06004KT BLU LIPI 192255Z 03004KT 9999 FEW060 15/14 Q1026 RMK FEW VIS MIN 9999 WIND THR06 06004KT WIND THR24 05004KT BLU LIPI 192155Z 04002KT 9999 FEW060 16/14 Q1026 RMK FEW VIS MIN 9999 WIND THR06 10001KT WIND THR24 06001KT BLU LIPI 192055Z 05002KT 9999 FEW060 16/13 Q1026 RMK FEW VIS MIN 9999 WIND THR06 11002KT WIND THR24 08003KT BLU LIPI 191955Z 10004KT 9999 FEW060 18/14 Q1026 RMK FEW VIS MIN 9999 WIND THR06 13004KT WIND THR24 12003KT BLU LIPI 191855Z 14004KT CAVOK 20/14 Q1025 RMK SKC VIS MIN 9999 WIND THR06 18004KT WIND THR24 16003KT BLU LIPI 191755Z 16005KT CAVOK 21/13 Q1025 RMK SKC VIS MIN 9999 WIND THR06 18006KT WIND THR24 16005KT BLU LIPI 191655Z 16007KT CAVOK 23/12 Q1025 RMK SKC VIS MIN 9999 WIND THR06 19009KT WIND THR24 17005KT BLU LIPI 191555Z 17006KT CAVOK 24/11 Q1025 RMK SKC VIS MIN 9999 WIND THR06 19007KT WIND THR24 14006KT BLU LIPI 191455Z 19005KT CAVOK 25/11 Q1025 RMK SKC VIS MIN 9999 WIND THR06 21006KT WIND THR24 12006KT RED LIPI 191355Z 16004KT CAVOK 25/10 Q1026 RMK FEW FEW200 VIS MIN 9999 WIND THR06 18007KT WIND THR2419005KT BLU LIPI 191255Z 16006KT CAVOK 25/09 Q1026 RMK FEW FEW200 VIS MIN 9999 WIND THR06 18006KT WIND THR24 24004KT BLU LIPI 191155Z 17006KT CAVOK 24/09 Q1026 RMK FEW FEW200 VIS MIN 9999 WIND THR06 20003KT WIND THR24 17005KT BLU LIPI 191055Z 25004KT CAVOK 24/10 Q1027 RMK FEW FEW200 VIS MIN 9999 WIND THR06 18004KT WIND THR24 14002KT BLU LIPI 190955Z 12005KT CAVOK 23/10 Q1027 RMK FEW FEW200 VIS MIN 9999 WIND THR06 15004KT WIND THR24 11004KT BLU LIPI 190855Z 09003KT CAVOK 22/09 Q1027 RMK FEW FEW200 VIS MIN 9999 WIND THR06 14006KT WIND THR24 08003KT BLU LIPI 190755Z 05005KT CAVOK 21/09 Q1027 RMK FEW FEW200 VIS MIN 9999 WIND THR06 05006KT WIND THR24 07006KT BLU LIPI 190655Z 06007KT 9999 FEW100 20/10 Q1027 RMK SCT SCT200 VIS MIN 9999 WIND THR06 08006KT WIND THR24 07007KT BLU LIPI 190555Z 05007KT 9999 FEW100 18/10 Q1027 RMK SCT SCT200 VIS MIN 9999 WIND THR06 09007KT WIND THR24 06007KT BLU LIPI 190455Z 35004KT 9999 FEW100 16/12 Q1026 RMK FEW VIS MIN 9999 WIND THR06 04004KT WIND THR24 01003KT BLU LIPI 190355Z VRB02KT 9999 SCT100 14/09 Q1026 RMK SCT VIS MIN 9999 WIND THR06 VRB02KT WIND THR24 VRB02KT BLU LIPI 190255Z 02004KT 9999 FEW060 15/11 Q1026 RMK FEW VIS MIN 9999 WIND THR06 05005KT WIND THR24 04006KT BLU LIPI 190155Z 36003KT CAVOK 14/11 Q1026 RMK FEW FEW140 VIS MIN 9999 WIND THR06 04002KT WIND THR24 04005KT BLU LIPI 190055Z 31001KT CAVOK 15/12 Q1026 RMK FEW FEW140 VIS MIN 9999 WIND THR06 33002KT WIND THR24 07002KT BLU LIPI 182355Z 34003KT 9999 FEW070 15/11 Q1026 RMK SCT VIS MIN 9999 WIND THR06 02003KT WIND THR24 33003KT BLU LIPI 182255Z 06004KT 9999 FEW070 17/09 Q1026 RMK SCT VIS MIN 9999 WIND THR06 09005KT WIND THR24 08004KT BLU LIPI 182155Z 05004KT 9999 FEW050 SCT070 18/10 Q1025 RMK BKN VIS MIN 9999 WIND THR06 08005KT WIND THR24 06004KT BLU LIPI 182055Z 09004KT 9999 BKN070 20/11 Q1025 RMK BKN VIS MIN 9999 WIND THR06 11002KT WIND THR24 10004KT BLU LIPI 181955Z 06003KT 9999 FEW050 SCT070 20/12 Q1024 RMK BKN VIS MIN 9999 WIND THR06 10004KT WIND THR24 06004KT BLU LIPI 181855Z 11004KT 9999 FEW050 SCT070 22/13 Q1023 RMK BKN VIS MIN 9999 WIND THR06 14004KT WIND THR24 12004KT BLU LIPI 181755Z 04004KT 9999 FEW050 SCT080 22/16 Q1023 RMK BKN VIS MIN 9999 WIND THR06 08004KT WIND THR24 06005KT BLU LIPI 181655Z 03008KT 9999 SCT050 SCT070 22/15 Q1022 RMK BKN VIS MIN 9999 WIND THR06 07007KT WIND THR24 05007KT BLU LIPI 181555Z 17006KT 9999 SCT060 SCT070 25/12 Q1022 RMK BKN VIS MIN 9999 WIND THR06 18007KT WIND THR24 15005KT BLU LIPI 181455Z 18007KT 9999 SCT070 26/13 Q1022 RMK SCT VIS MIN 9999 WIND THR06 19006KT WIND THR24 19008KT BLU LIPI 181355Z 15005KT 9999 SCT070 25/12 Q1022 RMK SCT VIS MIN 9999 WIND THR06 17006KT WIND THR24 18004KT BLU

METAR Messwerte "RIVOLTO (IT-AFB)" LIPI

Zurück zur Übersicht

Ortsname
Ländercode / m ü. NN
Zeit Temperatur Taupunkt Rel.
Luftfeuchte
Luftdruck:
Altimeter
NN
Station
Wind in Beaufort
(Knoten)
Sichtweite
(Meter)
Wolken
(Meter über Grund)
Wettererscheinung
RIVOLTO (IT-AFB)
IT 49
Fr 20.05. 02:55151388 %1026
1026
1020
N 2 (3)>= 10000Nicht signifikant 
RIVOLTO (IT-AFB)
IT 49
Fr 20.05. 01:55151388 %1026
1026
1020
NO 2 (4)>= 10000Nicht signifikant 
RIVOLTO (IT-AFB)
IT 49
Fr 20.05. 00:55151494 %1026
1026
1020
NNO 2 (4)>= 10000Leicht bewölkt (1800) 
RIVOLTO (IT-AFB)
IT 49
Do 19.05. 23:55161488 %1026
1026
1020
NO 1 (2)>= 10000Leicht bewölkt (1800) 
RIVOLTO (IT-AFB)
IT 49
Do 19.05. 22:55161382 %1026
1026
1020
NO 1 (2)>= 10000Leicht bewölkt (1800) 
RIVOLTO (IT-AFB)
IT 49
Do 19.05. 21:55181477 %1026
1026
1020
O 2 (4)>= 10000Leicht bewölkt (1800) 
RIVOLTO (IT-AFB)
IT 49
Do 19.05. 20:55201468 %1025
1025
1019
SO 2 (4)>= 10000Nicht signifikant 
RIVOLTO (IT-AFB)
IT 49
Do 19.05. 19:55211360 %1025
1025
1019
SSO 2 (5)>= 10000Nicht signifikant 
RIVOLTO (IT-AFB)
IT 49
Do 19.05. 18:55231250 %1025
1025
1019
SSO 3 (7)>= 10000Nicht signifikant 
RIVOLTO (IT-AFB)
IT 49
Do 19.05. 17:55241144 %1025
1025
1019
S 2 (6)>= 10000Nicht signifikant 
RIVOLTO (IT-AFB)
IT 49
Do 19.05. 16:55251141 %1025
1025
1019
S 2 (5)>= 10000Nicht signifikant 
RIVOLTO (IT-AFB)
IT 49
Do 19.05. 15:55251039 %1026
1026
1020
SSO 2 (4)>= 10000Nicht signifikant 
RIVOLTO (IT-AFB)
IT 49
Do 19.05. 14:5525936 %1026
1026
1020
SSO 2 (6)>= 10000Nicht signifikant 
RIVOLTO (IT-AFB)
IT 49
Do 19.05. 13:5524938 %1026
1026
1020
S 2 (6)>= 10000Nicht signifikant 
RIVOLTO (IT-AFB)
IT 49
Do 19.05. 12:55241041 %1027
1027
1021
WSW 2 (4)>= 10000Nicht signifikant 
RIVOLTO (IT-AFB)
IT 49
Do 19.05. 11:55231044 %1027
1027
1021
OSO 2 (5)>= 10000Nicht signifikant 
RIVOLTO (IT-AFB)
IT 49
Do 19.05. 10:5522943 %1027
1027
1021
O 2 (3)>= 10000Nicht signifikant 
RIVOLTO (IT-AFB)
IT 49
Do 19.05. 09:5521946 %1027
1027
1021
NO 2 (5)>= 10000Nicht signifikant 
RIVOLTO (IT-AFB)
IT 49
Do 19.05. 08:55201053 %1027
1027
1021
ONO 3 (7)>= 10000Wolkig (6100)
Leicht bewölkt (3000)
 
RIVOLTO (IT-AFB)
IT 49
Do 19.05. 07:55181059 %1027
1027
1021
NO 3 (7)>= 10000Wolkig (6100)
Leicht bewölkt (3000)
 
RIVOLTO (IT-AFB)
IT 49
Do 19.05. 06:55161277 %1026
1026
1020
N 2 (4)>= 10000Leicht bewölkt (3000) 
RIVOLTO (IT-AFB)
IT 49
Do 19.05. 05:5514972 %1026
1026
1020
Uml 1 (2)>= 10000Wolkig (3000) 
RIVOLTO (IT-AFB)
IT 49
Do 19.05. 04:55151177 %1026
1026
1020
NNO 2 (4)>= 10000Leicht bewölkt (1800) 
RIVOLTO (IT-AFB)
IT 49
Do 19.05. 03:55141182 %1026
1026
1020
N 2 (3)>= 10000Nicht signifikant 
RIVOLTO (IT-AFB)
IT 49
Do 19.05. 02:55151282 %1026
1026
1020
NW 1 (1)>= 10000Nicht signifikant 
RIVOLTO (IT-AFB)
IT 49
Do 19.05. 01:55151177 %1026
1026
1020
NNW 2 (3)>= 10000Leicht bewölkt (2100) 
RIVOLTO (IT-AFB)
IT 49
Do 19.05. 00:5517959 %1026
1026
1020
ONO 2 (4)>= 10000Leicht bewölkt (2100) 
RIVOLTO (IT-AFB)
IT 49
Mi 18.05. 23:55181059 %1025
1025
1019
NO 2 (4)>= 10000Wolkig (2100)
Leicht bewölkt (1500)
 
RIVOLTO (IT-AFB)
IT 49
Mi 18.05. 22:55201156 %1025
1025
1019
O 2 (4)>= 10000Stark bewölkt (2100) 
RIVOLTO (IT-AFB)
IT 49
Mi 18.05. 21:55201260 %1024
1024
1018
ONO 2 (3)>= 10000Wolkig (2100)
Leicht bewölkt (1500)
 
RIVOLTO (IT-AFB)
IT 49
Mi 18.05. 20:55221357 %1023
1023
1017
OSO 2 (4)>= 10000Wolkig (2100)
Leicht bewölkt (1500)
 
RIVOLTO (IT-AFB)
IT 49
Mi 18.05. 19:55221669 %1023
1023
1017
NO 2 (4)>= 10000Wolkig (2400)
Leicht bewölkt (1500)
 
RIVOLTO (IT-AFB)
IT 49
Mi 18.05. 18:55221565 %1022
1022
1016
NNO 3 (8)>= 10000Wolkig (2100)
Wolkig (1500)
 
RIVOLTO (IT-AFB)
IT 49
Mi 18.05. 17:55251244 %1022
1022
1016
S 2 (6)>= 10000Wolkig (2100)
Wolkig (1800)
 
RIVOLTO (IT-AFB)
IT 49
Mi 18.05. 16:55261345 %1022
1022
1016
S 3 (7)>= 10000Wolkig (2100) 
RIVOLTO (IT-AFB)
IT 49
Mi 18.05. 15:55251244 %1022
1022
1016
SSO 2 (5)>= 10000Wolkig (2100) 

Altimeter: Einstellung am Altimeter (Höhenmesser), die Höhe 0 muss auf diesen Luftdruckwert zeigen, damit das Gerät die Stationshöhe richtig anzeigt.

NN: Luftdruck reduziert auf "Normal Null", auf Meereshöhe, dieser von der Temperatur abhängige Wert wird bisweilen unkorrekt einfach als "Luftdruck" bezeichnet. Eigentlich nur eine fiktive Größe, die es erlaubt, Stationen auf unterschiedlichen Höhen miteinander zu vergleichen.

Station: Realer Luftdruck an der Station.